Time;durP1;ratioP1;P1;durP2;ratioP2;P2;SDS_P1;SDS_P2;PMS_P1;PMS_P2;Temp;Humidity;BMP_temperature;BMP_pressure;BME280_temperature;BME280_humidity;BME280_pressure;Samples;Min_cycle;Max_cycle;Signal;HPM_P1;HPM_P2
2023/08/02 00:00:34;;;;;;;5.17;2.00;;;17.40;99.90;;;;;;5058673;28;20477;-84
2023/08/02 00:03:01;;;;;;;5.03;2.10;;;17.40;99.90;;;;;;5057994;28;20460;-85
2023/08/02 00:05:30;;;;;;;6.60;2.50;;;17.50;99.90;;;;;;5056700;28;20514;-85
2023/08/02 00:07:57;;;;;;;4.47;2.13;;;17.50;99.90;;;;;;5058185;28;20455;-84
2023/08/02 00:10:24;;;;;;;5.97;2.70;;;17.40;99.90;;;;;;5058397;28;20995;-84
2023/08/02 00:12:52;;;;;;;5.00;2.20;;;17.40;99.90;;;;;;5059219;28;20451;-84
2023/08/02 00:15:18;;;;;;;6.60;3.17;;;17.30;99.90;;;;;;5058794;28;21049;-84
2023/08/02 00:17:45;;;;;;;6.00;2.00;;;17.20;99.90;;;;;;5059986;28;20452;-85
2023/08/02 00:20:13;;;;;;;5.63;2.00;;;17.20;99.90;;;;;;5059639;28;20533;-84
2023/08/02 00:22:41;;;;;;;4.83;2.03;;;17.20;99.90;;;;;;5059953;28;20454;-84
2023/08/02 00:25:08;;;;;;;8.33;2.30;;;17.30;99.90;;;;;;5060010;28;20562;-84
2023/08/02 00:27:35;;;;;;;5.83;2.23;;;17.20;99.90;;;;;;5059772;28;20452;-85
2023/08/02 00:30:02;;;;;;;4.87;1.80;;;17.10;99.90;;;;;;5057332;28;20489;-84
2023/08/02 00:32:29;;;;;;;7.17;1.90;;;17.10;99.90;;;;;;5057804;28;20452;-86
2023/08/02 00:34:56;;;;;;;5.43;2.20;;;17.10;99.90;;;;;;5058685;28;20457;-86
2023/08/02 00:37:23;;;;;;;4.53;2.20;;;17.10;99.90;;;;;;5056495;28;20451;-86
2023/08/02 00:39:52;;;;;;;3.30;2.27;;;17.10;99.90;;;;;;5056527;28;20478;-85
2023/08/02 00:42:20;;;;;;;6.73;3.10;;;17.10;99.90;;;;;;5056871;28;20835;-84
2023/08/02 00:44:47;;;;;;;5.13;2.10;;;17.10;99.90;;;;;;5056935;28;20578;-85
2023/08/02 00:47:14;;;;;;;7.23;2.60;;;17.10;99.90;;;;;;5056712;28;20458;-85
2023/08/02 00:49:41;;;;;;;5.53;2.10;;;17.10;99.90;;;;;;5057309;28;20478;-84
2023/08/02 00:52:08;;;;;;;4.77;2.00;;;17.00;99.90;;;;;;5058351;28;20548;-85
2023/08/02 00:54:35;;;;;;;6.70;2.37;;;17.10;99.90;;;;;;5057914;28;20542;-85
2023/08/02 00:57:04;;;;;;;4.47;2.40;;;17.00;99.90;;;;;;5057361;28;20446;-86
2023/08/02 00:59:30;;;;;;;3.60;1.80;;;17.00;99.90;;;;;;5057643;28;20554;-84
2023/08/02 01:01:58;;;;;;;4.50;2.27;;;17.10;99.90;;;;;;5057753;28;20545;-84
2023/08/02 01:04:25;;;;;;;5.67;3.30;;;17.00;99.90;;;;;;5057330;28;21027;-85
2023/08/02 01:06:56;;;;;;;4.40;1.80;;;17.00;99.90;;;;;;5056406;28;20850;-85
2023/08/02 01:09:41;;;;;;;3.00;2.30;;;17.00;99.90;;;;;;5060167;28;20557;-86
2023/08/02 01:12:10;;;;;;;10.00;1.90;;;17.00;99.90;;;;;;5043600;28;20453;-84
2023/08/02 01:14:40;;;;;;;7.63;1.73;;;17.00;99.90;;;;;;5060834;28;20645;-85
2023/08/02 01:17:09;;;;;;;5.20;2.23;;;17.00;99.90;;;;;;5060698;28;20459;-85
2023/08/02 01:19:36;;;;;;;2.57;1.90;;;17.00;99.90;;;;;;5059617;28;20483;-86
2023/08/02 01:22:04;;;;;;;6.83;2.70;;;16.90;99.90;;;;;;5060427;28;20906;-85
2023/08/02 01:24:33;;;;;;;2.43;1.60;;;16.90;99.90;;;;;;5060329;28;20485;-85
2023/08/02 01:27:03;;;;;;;5.17;2.00;;;16.80;99.90;;;;;;5059346;28;20463;-84
2023/08/02 01:29:31;;;;;;;5.73;2.00;;;16.70;99.90;;;;;;5059595;28;20913;-84
2023/08/02 01:32:00;;;;;;;3.93;2.57;;;16.70;99.90;;;;;;5059695;28;20523;-84
2023/08/02 01:34:27;;;;;;;7.00;2.60;;;16.70;99.90;;;;;;5059504;28;20532;-82
2023/08/02 01:36:54;;;;;;;2.73;2.07;;;16.70;99.90;;;;;;5059821;28;20451;-85
2023/08/02 01:39:23;;;;;;;4.00;1.87;;;16.70;99.90;;;;;;5060662;28;20459;-85
2023/08/02 01:41:49;;;;;;;3.90;2.03;;;16.70;99.90;;;;;;5060263;28;20452;-84
2023/08/02 01:44:16;;;;;;;3.00;1.80;;;16.60;99.90;;;;;;5061855;28;20492;-83
2023/08/02 01:46:43;;;;;;;4.90;2.17;;;16.60;99.90;;;;;;5057610;28;20446;-82
2023/08/02 01:49:10;;;;;;;3.27;2.00;;;16.70;99.90;;;;;;5057654;28;20466;-84
2023/08/02 01:51:36;;;;;;;4.07;2.10;;;16.60;99.90;;;;;;5057295;28;20451;-84
2023/08/02 01:54:03;;;;;;;4.30;1.83;;;16.60;99.90;;;;;;5058123;28;20447;-84
2023/08/02 01:56:31;;;;;;;6.20;2.20;;;16.60;99.90;;;;;;5057655;28;20453;-83
2023/08/02 01:58:58;;;;;;;5.63;4.03;;;16.60;99.90;;;;;;5057472;28;20484;-83
2023/08/02 02:01:25;;;;;;;3.40;2.37;;;16.60;99.90;;;;;;5056388;28;20461;-84
2023/08/02 02:03:52;;;;;;;3.80;1.60;;;16.70;99.90;;;;;;5057202;28;20468;-84
2023/08/02 02:06:18;;;;;;;4.20;1.63;;;16.70;99.90;;;;;;5057198;28;20444;-87
2023/08/02 02:08:45;;;;;;;5.63;2.37;;;16.60;99.90;;;;;;5057631;28;20477;-86
2023/08/02 02:11:12;;;;;;;7.40;3.57;;;16.60;99.90;;;;;;5057269;28;20454;-85
2023/08/02 02:13:40;;;;;;;3.17;1.90;;;16.60;99.90;;;;;;5056849;28;20487;-87
2023/08/02 02:16:07;;;;;;;5.33;1.83;;;16.60;99.90;;;;;;5057149;28;20451;-85
2023/08/02 02:18:34;;;;;;;3.90;1.73;;;16.60;99.90;;;;;;5056739;28;20456;-86
2023/08/02 02:21:02;;;;;;;2.67;1.93;;;16.60;99.90;;;;;;5056890;28;20979;-85
2023/08/02 02:23:29;;;;;;;6.33;1.97;;;16.60;99.90;;;;;;5056246;28;20459;-86
2023/08/02 02:25:56;;;;;;;5.33;2.10;;;16.60;99.90;;;;;;5056696;28;20854;-85
2023/08/02 02:28:23;;;;;;;6.00;2.40;;;16.60;99.90;;;;;;5056866;28;20457;-84
2023/08/02 02:30:52;;;;;;;7.07;2.30;;;16.70;99.90;;;;;;5056872;28;20462;-86
2023/08/02 02:33:19;;;;;;;4.53;2.00;;;16.70;99.90;;;;;;5056216;28;20994;-84
2023/08/02 02:35:46;;;;;;;3.40;1.57;;;16.80;99.90;;;;;;5055942;28;20446;-84
2023/08/02 02:38:12;;;;;;;5.20;1.87;;;16.80;99.90;;;;;;5056732;28;20460;-84
2023/08/02 02:40:39;;;;;;;5.73;2.60;;;16.80;99.90;;;;;;5056176;28;20482;-84
2023/08/02 02:43:06;;;;;;;5.10;1.97;;;16.80;99.90;;;;;;5057149;28;20457;-84
2023/08/02 02:45:33;;;;;;;7.10;2.00;;;16.80;99.90;;;;;;5056505;28;20490;-85
2023/08/02 02:48:01;;;;;;;4.10;2.00;;;16.80;99.90;;;;;;5055843;28;20843;-84
2023/08/02 02:50:29;;;;;;;6.90;2.00;;;16.80;99.90;;;;;;5056846;28;20481;-83
2023/08/02 02:52:55;;;;;;;7.53;2.03;;;16.90;99.90;;;;;;5055876;28;20978;-85
2023/08/02 02:55:22;;;;;;;3.40;1.60;;;16.90;99.90;;;;;;5056209;28;20447;-84
2023/08/02 02:57:50;;;;;;;5.60;2.40;;;16.90;99.90;;;;;;5056409;28;20847;-85
2023/08/02 03:00:17;;;;;;;5.07;2.60;;;17.00;99.90;;;;;;5056270;28;21057;-84
2023/08/02 03:02:44;;;;;;;6.03;2.33;;;17.00;99.90;;;;;;5056464;28;20537;-85
2023/08/02 03:05:12;;;;;;;3.50;1.70;;;17.00;99.90;;;;;;5055962;28;20492;-85
2023/08/02 03:07:39;;;;;;;3.90;2.00;;;17.00;99.90;;;;;;5056028;28;20461;-84
2023/08/02 03:10:07;;;;;;;3.40;2.40;;;17.00;99.90;;;;;;5055357;28;20511;-85
2023/08/02 03:12:33;;;;;;;3.43;2.33;;;17.10;99.90;;;;;;5055234;28;20453;-86
2023/08/02 03:15:00;;;;;;;7.80;2.80;;;17.00;99.90;;;;;;5055564;28;21019;-85
2023/08/02 03:17:27;;;;;;;7.97;2.40;;;17.10;99.90;;;;;;5056207;28;20834;-85
2023/08/02 03:19:54;;;;;;;3.93;2.23;;;17.10;99.90;;;;;;5056572;28;20481;-86
2023/08/02 03:22:22;;;;;;;6.03;2.20;;;17.10;99.90;;;;;;5056270;28;20458;-85
2023/08/02 03:24:49;;;;;;;5.20;1.80;;;17.10;99.90;;;;;;5056154;28;21049;-84
2023/08/02 03:27:16;;;;;;;3.73;2.13;;;17.10;99.90;;;;;;5055987;28;20450;-85
2023/08/02 03:29:42;;;;;;;3.77;2.30;;;17.10;99.90;;;;;;5056017;28;20490;-86
2023/08/02 03:32:10;;;;;;;3.90;2.10;;;17.20;99.90;;;;;;5055178;28;20491;-85
2023/08/02 03:34:36;;;;;;;3.00;1.97;;;17.10;99.90;;;;;;5055955;28;20454;-84
2023/08/02 03:37:03;;;;;;;4.23;2.00;;;17.10;99.90;;;;;;5055488;28;20541;-86
2023/08/02 03:39:31;;;;;;;5.17;2.20;;;17.10;99.90;;;;;;5055929;28;20486;-84
2023/08/02 03:41:58;;;;;;;3.90;2.27;;;17.10;99.90;;;;;;5056246;28;20451;-83
2023/08/02 03:44:25;;;;;;;5.77;2.30;;;17.20;99.90;;;;;;5056276;28;20468;-83
2023/08/02 03:46:52;;;;;;;3.47;2.03;;;17.10;99.90;;;;;;5055546;28;21132;-84
2023/08/02 03:49:19;;;;;;;5.80;2.20;;;17.10;99.90;;;;;;5056538;28;20553;-84
2023/08/02 03:51:46;;;;;;;7.77;3.30;;;17.10;99.90;;;;;;5057013;28;20456;-85
2023/08/02 03:54:13;;;;;;;5.00;2.23;;;17.20;99.90;;;;;;5056716;28;20454;-83
2023/08/02 03:56:41;;;;;;;3.67;2.13;;;17.20;99.90;;;;;;5055723;28;20819;-83
2023/08/02 03:59:08;;;;;;;4.60;2.20;;;17.20;99.90;;;;;;5056232;28;20471;-85
2023/08/02 04:01:35;;;;;;;3.90;1.60;;;17.20;99.90;;;;;;5056545;28;20455;-83
2023/08/02 04:04:01;;;;;;;5.67;2.20;;;17.10;99.90;;;;;;5056556;28;20446;-85
2023/08/02 04:06:28;;;;;;;3.63;2.10;;;17.20;99.90;;;;;;5056737;28;20492;-84
2023/08/02 04:08:55;;;;;;;4.80;2.67;;;17.20;99.90;;;;;;5055387;28;20475;-84
2023/08/02 04:11:22;;;;;;;5.17;1.90;;;17.20;99.90;;;;;;5055800;28;20464;-84
2023/08/02 04:13:51;;;;;;;3.80;1.80;;;17.20;99.90;;;;;;5054855;28;20462;-84
2023/08/02 04:16:18;;;;;;;5.13;2.07;;;17.30;99.90;;;;;;5055939;28;20456;-85
2023/08/02 04:18:50;;;;;;;3.37;1.90;;;17.20;99.90;;;;;;5055285;28;20468;-85
2023/08/02 04:21:19;;;;;;;3.97;2.10;;;17.20;99.90;;;;;;5055048;28;20456;-85
2023/08/02 04:23:46;;;;;;;4.37;2.83;;;17.30;99.90;;;;;;5055400;28;20450;-84
2023/08/02 04:26:12;;;;;;;5.90;2.50;;;17.30;99.90;;;;;;5054986;28;20497;-85
2023/08/02 04:31:21;;;;;;;3.20;1.93;;;17.30;99.90;;;;;;5049769;28;20468;-82
2023/08/02 04:33:48;;;;;;;5.50;2.07;;;17.30;99.90;;;;;;5052954;28;20512;-82
2023/08/02 04:36:14;;;;;;;2.70;2.00;;;17.40;99.90;;;;;;5046725;28;20515;-82
2023/08/02 04:38:41;;;;;;;4.03;1.63;;;17.40;99.90;;;;;;5037784;28;20520;-81
2023/08/02 04:41:14;;;;;;;6.63;2.23;;;17.40;99.90;;;;;;5035761;28;20500;-81
2023/08/02 04:43:41;;;;;;;4.40;2.30;;;17.40;99.90;;;;;;5037291;28;20458;-80
2023/08/02 04:46:08;;;;;;;6.27;2.50;;;17.40;99.90;;;;;;5025939;28;20491;-81
2023/08/02 04:48:36;;;;;;;5.53;2.37;;;17.40;99.90;;;;;;5019768;28;20537;-82
2023/08/02 04:51:07;;;;;;;6.50;2.43;;;17.40;99.90;;;;;;5018959;28;20508;-83
2023/08/02 04:53:34;;;;;;;4.20;2.47;;;17.40;99.90;;;;;;5020513;28;20438;-81
2023/08/02 04:56:01;;;;;;;5.23;2.10;;;17.40;99.90;;;;;;5019860;28;20456;-81
2023/08/02 04:58:28;;;;;;;4.00;2.00;;;17.50;99.90;;;;;;5019922;28;20857;-81
2023/08/02 05:00:55;;;;;;;4.07;1.73;;;17.50;99.90;;;;;;5019647;28;20475;-81
2023/08/02 05:03:22;;;;;;;4.00;1.80;;;17.50;99.90;;;;;;5019670;28;21012;-81
2023/08/02 05:05:51;;;;;;;5.43;2.47;;;17.50;99.90;;;;;;5019593;28;20511;-82
2023/08/02 05:08:18;;;;;;;5.40;2.13;;;17.50;99.90;;;;;;5019741;28;20457;-82
2023/08/02 05:10:45;;;;;;;3.30;1.83;;;17.50;99.90;;;;;;5019619;28;20478;-82
2023/08/02 05:13:11;;;;;;;5.50;1.80;;;17.40;99.90;;;;;;5019004;28;20453;-84
2023/08/02 05:15:38;;;;;;;5.20;1.70;;;17.50;99.90;;;;;;5021770;28;20451;-81
2023/08/02 05:18:05;;;;;;;4.30;1.90;;;17.60;99.90;;;;;;5019318;28;20857;-80
2023/08/02 05:20:32;;;;;;;2.70;1.77;;;17.60;99.90;;;;;;5019328;28;20479;-85
2023/08/02 05:23:01;;;;;;;4.73;2.50;;;17.70;99.90;;;;;;5013931;28;20456;-81
2023/08/02 05:25:32;;;;;;;3.27;2.17;;;17.60;99.90;;;;;;5015457;28;20500;-85
2023/08/02 05:28:01;;;;;;;4.63;1.60;;;17.70;99.90;;;;;;5014655;28;20464;-81
2023/08/02 05:30:29;;;;;;;3.80;2.20;;;17.70;99.90;;;;;;5017940;28;20478;-82
2023/08/02 05:32:55;;;;;;;3.23;1.97;;;17.70;99.90;;;;;;5015147;28;20492;-83
2023/08/02 05:35:23;;;;;;;4.33;1.93;;;17.80;99.90;;;;;;5020722;28;20993;-83
2023/08/02 05:37:50;;;;;;;2.83;1.80;;;17.80;99.90;;;;;;5025357;28;20500;-84
2023/08/02 05:40:18;;;;;;;3.57;1.97;;;17.70;99.90;;;;;;5025961;28;20541;-85
2023/08/02 05:42:45;;;;;;;3.53;2.03;;;17.70;99.90;;;;;;5024762;28;20551;-85
2023/08/02 05:45:12;;;;;;;3.97;2.13;;;17.70;99.90;;;;;;5024119;28;20438;-83
2023/08/02 05:47:39;;;;;;;5.30;2.27;;;17.70;99.90;;;;;;5024003;28;20451;-83
2023/08/02 05:50:07;;;;;;;4.63;2.37;;;17.70;99.90;;;;;;5024315;28;20484;-85
2023/08/02 05:52:34;;;;;;;3.83;1.83;;;17.80;99.90;;;;;;5023437;28;20488;-83
2023/08/02 05:55:01;;;;;;;5.83;2.03;;;17.80;99.90;;;;;;5022937;28;20549;-84
2023/08/02 05:57:29;;;;;;;3.33;2.30;;;17.80;99.90;;;;;;5021872;28;20521;-85
2023/08/02 05:59:55;;;;;;;5.87;2.47;;;17.70;99.90;;;;;;5021549;28;20563;-84
2023/08/02 06:02:22;;;;;;;3.20;1.77;;;17.70;99.90;;;;;;5020382;28;20456;-82
2023/08/02 06:04:49;;;;;;;2.60;2.40;;;17.70;99.90;;;;;;5020958;28;20828;-81
2023/08/02 06:07:16;;;;;;;2.63;2.10;;;17.70;99.90;;;;;;5020102;28;20498;-85
2023/08/02 06:09:43;;;;;;;5.77;2.40;;;17.70;99.90;;;;;;5020972;28;20469;-83
2023/08/02 06:12:10;;;;;;;6.50;2.93;;;17.70;99.90;;;;;;5017625;28;20462;-83
2023/08/02 06:14:38;;;;;;;3.23;2.40;;;17.70;99.90;;;;;;5015188;28;20556;-85
2023/08/02 06:17:05;;;;;;;3.60;2.40;;;17.70;99.90;;;;;;5017674;28;20442;-81
2023/08/02 06:19:32;;;;;;;5.20;2.43;;;17.80;99.90;;;;;;5018139;28;20534;-81
2023/08/02 06:21:59;;;;;;;8.43;2.47;;;17.80;99.90;;;;;;5020619;28;20492;-84
2023/08/02 06:24:25;;;;;;;3.07;2.13;;;17.80;99.90;;;;;;5020887;28;20453;-83
2023/08/02 06:26:52;;;;;;;3.30;2.40;;;17.80;99.90;;;;;;5019840;28;20495;-81
2023/08/02 06:29:19;;;;;;;4.27;2.53;;;17.80;99.90;;;;;;5018912;28;20867;-82
2023/08/02 06:31:47;;;;;;;3.03;2.57;;;17.90;99.90;;;;;;5020238;28;20496;-81
2023/08/02 06:34:14;;;;;;;5.47;2.53;;;17.90;99.90;;;;;;5020390;28;20543;-82
2023/08/02 06:36:41;;;;;;;3.57;2.93;;;17.90;99.90;;;;;;5016677;28;20468;-84
2023/08/02 06:39:08;;;;;;;3.90;3.00;;;17.90;99.90;;;;;;5019041;28;20480;-81
2023/08/02 06:41:34;;;;;;;4.47;2.60;;;17.90;99.90;;;;;;5019092;28;20450;-81
2023/08/02 06:44:03;;;;;;;5.17;2.63;;;17.90;99.90;;;;;;5016684;28;20449;-82
2023/08/02 06:46:30;;;;;;;4.00;2.77;;;17.80;99.90;;;;;;5014015;28;20485;-82
2023/08/02 06:48:58;;;;;;;3.97;2.87;;;17.80;99.90;;;;;;5011639;28;21301;-81
2023/08/02 06:51:25;;;;;;;4.37;3.37;;;17.80;99.90;;;;;;5016933;28;20465;-82
2023/08/02 06:53:52;;;;;;;4.20;3.00;;;17.80;99.90;;;;;;5016492;28;20475;-81
2023/08/02 06:56:19;;;;;;;3.17;2.50;;;17.80;99.90;;;;;;5015242;28;20504;-81
2023/08/02 06:58:46;;;;;;;5.03;2.50;;;17.80;99.90;;;;;;5013651;28;20460;-81
2023/08/02 07:01:14;;;;;;;4.90;2.97;;;17.80;99.90;;;;;;5016578;28;20546;-82
2023/08/02 07:03:41;;;;;;;4.47;2.83;;;17.90;99.90;;;;;;5015898;28;20512;-80
2023/08/02 07:06:14;;;;;;;3.43;2.77;;;17.90;99.90;;;;;;5018784;28;20561;-83
2023/08/02 07:08:42;;;;;;;5.33;3.57;;;17.90;99.90;;;;;;4984216;28;20853;-81
2023/08/02 07:11:09;;;;;;;4.73;3.10;;;17.90;99.90;;;;;;5012676;28;20469;-83
2023/08/02 07:13:37;;;;;;;3.17;2.80;;;17.90;99.90;;;;;;5009242;28;20471;-82
2023/08/02 07:16:05;;;;;;;5.83;3.43;;;17.90;99.90;;;;;;5013473;28;20743;-82
2023/08/02 07:18:32;;;;;;;4.20;2.90;;;17.90;99.90;;;;;;5018001;28;20525;-83
2023/08/02 07:21:04;;;;;;;5.23;2.80;;;17.90;99.90;;;;;;5028073;28;20480;-84
2023/08/02 07:23:32;;;;;;;4.90;3.67;;;17.90;99.90;;;;;;5018183;28;20453;-84
2023/08/02 07:25:59;;;;;;;5.77;2.80;;;17.90;99.90;;;;;;5013299;28;20488;-84
2023/08/02 07:28:26;;;;;;;6.50;3.60;;;18.00;99.90;;;;;;5001486;28;20533;-84
2023/08/02 07:30:53;;;;;;;6.60;2.87;;;18.00;99.90;;;;;;5022426;28;20512;-81
2023/08/02 07:33:20;;;;;;;3.70;2.87;;;18.10;99.90;;;;;;5018581;28;20446;-85
2023/08/02 07:35:47;;;;;;;4.40;3.17;;;18.10;99.90;;;;;;5014533;28;20549;-82
2023/08/02 07:38:14;;;;;;;6.60;2.60;;;18.10;99.90;;;;;;5015039;28;20449;-83
2023/08/02 07:40:43;;;;;;;6.43;3.17;;;18.10;99.90;;;;;;5014117;28;20480;-82
2023/08/02 07:43:11;;;;;;;2.67;2.10;;;18.00;99.90;;;;;;5014783;28;20480;-84
2023/08/02 07:45:37;;;;;;;4.40;2.77;;;18.00;99.90;;;;;;5014278;28;20821;-82
2023/08/02 07:48:05;;;;;;;2.73;2.20;;;18.00;99.90;;;;;;5009592;28;20556;-83
2023/08/02 07:50:32;;;;;;;3.23;2.17;;;18.10;99.90;;;;;;5010450;28;20985;-81
2023/08/02 07:52:59;;;;;;;2.90;2.10;;;18.10;99.90;;;;;;5011732;28;20464;-83
2023/08/02 07:55:26;;;;;;;5.83;2.60;;;18.10;99.90;;;;;;5011768;28;20457;-82
2023/08/02 07:57:54;;;;;;;3.80;1.77;;;18.10;99.90;;;;;;5013225;28;20484;-84
2023/08/02 08:00:21;;;;;;;2.47;1.70;;;18.00;99.90;;;;;;5013119;28;20596;-84
2023/08/02 08:02:48;;;;;;;2.47;1.73;;;18.00;99.90;;;;;;5012548;28;20572;-82
2023/08/02 08:05:14;;;;;;;2.50;1.63;;;18.10;99.90;;;;;;5012241;28;20500;-85
2023/08/02 08:07:41;;;;;;;2.80;1.70;;;18.10;99.90;;;;;;5013742;28;20565;-84
2023/08/02 08:10:09;;;;;;;2.70;1.57;;;18.00;99.90;;;;;;5019190;28;20457;-83
2023/08/02 08:12:37;;;;;;;3.20;1.70;;;18.10;99.90;;;;;;5013808;28;20456;-82
2023/08/02 08:15:07;;;;;;;2.03;1.83;;;18.10;99.90;;;;;;5004363;28;20453;-83
2023/08/02 08:17:33;;;;;;;2.60;1.37;;;18.20;99.90;;;;;;5015984;28;20457;-84
2023/08/02 08:20:00;;;;;;;3.30;1.63;;;18.30;99.90;;;;;;5017767;28;20473;-82
2023/08/02 08:22:29;;;;;;;2.87;1.40;;;18.40;99.90;;;;;;5017501;28;20890;-83
2023/08/02 08:24:55;;;;;;;1.90;1.40;;;18.50;99.90;;;;;;5019448;28;20453;-82
2023/08/02 08:27:22;;;;;;;1.90;1.30;;;18.50;99.90;;;;;;5017424;28;20489;-82
2023/08/02 08:29:49;;;;;;;1.80;1.40;;;18.60;99.90;;;;;;5017880;28;20828;-83
2023/08/02 08:32:17;;;;;;;1.80;1.30;;;18.70;99.90;;;;;;5016912;28;20461;-82
2023/08/02 08:34:44;;;;;;;2.13;1.50;;;18.70;99.90;;;;;;5016533;28;20457;-84
2023/08/02 08:37:11;;;;;;;2.07;1.30;;;18.70;99.90;;;;;;5016994;28;20841;-82
2023/08/02 08:39:38;;;;;;;2.13;1.60;;;18.70;99.90;;;;;;5015742;28;20478;-83
2023/08/02 08:42:07;;;;;;;2.60;1.20;;;18.70;99.90;;;;;;5017476;28;20475;-83
2023/08/02 08:44:37;;;;;;;3.00;1.83;;;18.70;99.90;;;;;;5025098;28;20577;-82
2023/08/02 08:47:05;;;;;;;7.77;2.80;;;18.70;99.90;;;;;;5026194;28;20564;-82
2023/08/02 08:49:33;;;;;;;4.60;1.40;;;18.70;99.90;;;;;;5031052;28;20552;-83
2023/08/02 08:52:04;;;;;;;2.93;2.07;;;18.50;99.90;;;;;;5018743;28;20457;-83
2023/08/02 08:54:34;;;;;;;1.97;1.77;;;18.50;99.90;;;;;;5025455;28;20533;-85
2023/08/02 08:57:01;;;;;;;3.33;1.90;;;18.40;99.90;;;;;;5032803;28;20440;-83
2023/08/02 08:59:28;;;;;;;3.43;1.63;;;18.30;99.90;;;;;;5043379;28;20547;-82
2023/08/02 09:01:58;;;;;;;2.00;1.57;;;18.30;99.90;;;;;;5023315;28;20943;-83
2023/08/02 09:04:26;;;;;;;2.07;1.67;;;18.20;99.90;;;;;;5019661;28;20445;-85
2023/08/02 09:06:54;;;;;;;2.00;1.37;;;18.30;99.90;;;;;;5018694;28;20567;-84
2023/08/02 09:09:20;;;;;;;2.23;1.60;;;18.40;99.90;;;;;;5018296;28;20564;-84
2023/08/02 09:11:48;;;;;;;3.10;2.20;;;18.50;99.90;;;;;;5014986;28;20468;-83
2023/08/02 09:14:16;;;;;;;2.73;1.70;;;18.50;99.90;;;;;;5013725;28;21097;-84
2023/08/02 09:16:57;;;;;;;2.23;1.50;;;18.50;99.90;;;;;;5014289;28;20472;-84
2023/08/02 09:19:26;;;;;;;2.37;1.73;;;18.60;99.90;;;;;;5014930;28;21066;-83
2023/08/02 09:22:09;;;;;;;3.80;1.40;;;18.70;99.90;;;;;;5019189;28;21007;-83
2023/08/02 09:24:38;;;;;;;2.73;1.17;;;18.80;99.90;;;;;;5022311;28;20493;-83
2023/08/02 09:27:06;;;;;;;3.77;1.90;;;18.80;99.90;;;;;;5017401;28;20482;-82
2023/08/02 09:29:50;;;;;;;2.77;1.40;;;18.80;99.90;;;;;;5016946;28;20504;-85
2023/08/02 09:32:17;;;;;;;2.17;1.30;;;19.00;99.90;;;;;;5017830;28;20473;-85
2023/08/02 09:34:46;;;;;;;8.03;1.80;;;19.10;99.90;;;;;;5017634;28;20453;-82
2023/08/02 09:37:16;;;;;;;2.10;1.20;;;19.30;99.90;;;;;;5017148;28;20549;-84
2023/08/02 09:39:50;;;;;;;1.80;1.10;;;19.40;99.90;;;;;;5017556;28;20537;-83
2023/08/02 09:42:18;;;;;;;1.87;1.20;;;19.50;99.90;;;;;;5023815;28;20496;-81
2023/08/02 09:44:52;;;;;;;1.83;1.40;;;19.50;99.90;;;;;;5016310;28;20958;-82
2023/08/02 09:47:19;;;;;;;1.70;1.20;;;19.70;99.90;;;;;;5016114;28;20859;-85
2023/08/02 09:50:03;;;;;;;1.77;1.10;;;20.00;99.90;;;;;;5016458;28;20927;-82
2023/08/02 09:52:31;;;;;;;1.70;1.10;;;20.10;99.90;;;;;;5014487;28;20541;-84
2023/08/02 09:54:59;;;;;;;2.27;0.93;;;20.10;99.90;;;;;;5016507;28;20450;-81
2023/08/02 09:57:26;;;;;;;2.50;1.30;;;20.20;99.90;;;;;;5015688;28;20550;-83
2023/08/02 09:59:54;;;;;;;1.50;0.80;;;20.50;99.90;;;;;;5019481;28;20477;-81
2023/08/02 10:02:25;;;;;;;2.73;1.23;;;20.70;99.90;;;;;;5015864;28;20462;-81
2023/08/02 10:04:56;;;;;;;1.80;1.47;;;20.80;99.90;;;;;;5014866;28;20826;-82
2023/08/02 10:07:25;;;;;;;1.60;1.00;;;20.90;99.90;;;;;;5014832;28;20486;-82
2023/08/02 10:09:56;;;;;;;1.90;1.00;;;21.00;99.90;;;;;;5014780;28;20560;-82
2023/08/02 10:12:25;;;;;;;2.53;1.00;;;20.90;99.90;;;;;;5015434;28;20496;-83
2023/08/02 10:14:52;;;;;;;1.90;0.80;;;21.00;99.90;;;;;;5017285;28;20462;-81
2023/08/02 10:17:20;;;;;;;1.43;0.80;;;20.90;99.90;;;;;;5016421;28;20437;-80
2023/08/02 10:19:48;;;;;;;2.43;0.80;;;20.80;99.90;;;;;;5015595;28;20896;-81
2023/08/02 10:22:16;;;;;;;1.60;0.80;;;20.70;99.90;;;;;;5023285;28;20556;-82
2023/08/02 10:24:45;;;;;;;1.97;1.07;;;20.60;99.90;;;;;;5015223;28;20460;-82
2023/08/02 10:27:15;;;;;;;1.70;0.90;;;20.50;99.90;;;;;;5015442;28;20490;-82
2023/08/02 10:29:42;;;;;;;2.45;0.90;;;20.50;99.90;;;;;;5035125;22;20549;-83
2023/08/02 10:32:13;;;;;;;1.57;0.90;;;20.40;99.90;;;;;;5025732;28;20819;-83
2023/08/02 10:34:45;;;;;;;1.87;0.90;;;20.50;99.90;;;;;;5026106;28;20477;-82
2023/08/02 10:37:12;;;;;;;2.03;0.87;;;20.50;99.90;;;;;;5018670;28;20782;-83
2023/08/02 10:39:57;;;;;;;2.10;0.90;;;20.60;99.90;;;;;;5018409;28;20456;-83
2023/08/02 10:42:29;;;;;;;1.60;0.80;;;20.80;99.90;;;;;;5035965;28;20966;-82
2023/08/02 10:45:15;;;;;;;2.00;0.90;;;20.80;99.90;;;;;;5036545;28;20824;-83
2023/08/02 10:47:42;;;;;;;1.87;0.83;;;20.70;99.90;;;;;;5034024;28;20515;-82
2023/08/02 10:50:29;;;;;;;1.83;0.70;;;20.70;99.90;;;;;;5019072;28;20477;-84
2023/08/02 10:53:07;;;;;;;1.80;0.80;;;20.70;99.90;;;;;;5032348;28;20468;-83
2023/08/02 10:55:34;;;;;;;1.40;0.80;;;20.90;99.90;;;;;;5017884;28;20488;-84
2023/08/02 10:58:06;;;;;;;2.50;0.90;;;21.10;99.90;;;;;;5033614;28;20532;-84
2023/08/02 11:00:37;;;;;;;1.70;0.80;;;21.40;99.90;;;;;;5038229;28;20487;-84
2023/08/02 11:03:04;;;;;;;2.53;0.70;;;21.70;99.90;;;;;;5037234;28;20980;-85
2023/08/02 11:05:45;;;;;;;9.47;0.93;;;22.10;99.90;;;;;;5039288;28;20461;-83
2023/08/02 11:08:12;;;;;;;1.40;0.70;;;22.70;99.90;;;;;;5035517;28;20477;-84
2023/08/02 11:10:49;;;;;;;2.70;0.80;;;23.30;99.90;;;;;;5039612;28;20473;-83
2023/08/02 11:13:18;;;;;;;1.30;0.60;;;23.90;99.90;;;;;;5036720;28;20532;-82
2023/08/02 11:15:45;;;;;;;2.90;0.90;;;23.70;99.10;;;;;;5039043;28;20461;-83
2023/08/02 11:18:12;;;;;;;1.40;0.60;;;23.70;90.10;;;;;;5037303;28;20456;-85
2023/08/02 11:20:39;;;;;;;1.40;0.60;;;23.50;29.70;;;;;;5036942;28;20553;-83
2023/08/02 11:23:21;;;;;;;1.50;0.70;;;23.30;99.90;;;;;;5037106;28;20459;-86
2023/08/02 11:25:48;;;;;;;4.30;0.87;;;23.20;54.70;;;;;;5037292;28;20964;-85
2023/08/02 11:28:16;;;;;;;3.97;0.60;;;23.20;99.90;;;;;;5040793;28;20489;-83
2023/08/02 11:30:44;;;;;;;1.60;0.70;;;23.20;99.90;;;;;;5039793;28;21019;-83
2023/08/02 11:33:12;;;;;;;2.63;0.70;;;23.40;95.70;;;;;;5037197;28;20456;-86
2023/08/02 11:35:39;;;;;;;1.50;0.80;;;23.60;74.20;;;;;;5031664;28;20543;-87
2023/08/02 11:38:11;;;;;;;1.40;0.70;;;23.90;99.90;;;;;;5030486;28;20458;-84
2023/08/02 11:40:38;;;;;;;1.60;0.60;;;24.00;19.40;;;;;;5038231;28;20473;-84
2023/08/02 11:43:07;;;;;;;1.50;0.70;;;24.30;99.90;;;;;;5033307;28;20489;-84
2023/08/02 11:45:36;;;;;;;1.50;0.80;;;24.70;41.30;;;;;;5035963;28;20531;-84
2023/08/02 11:48:04;;;;;;;2.47;0.90;;;25.40;99.90;;;;;;5036301;28;20501;-85
2023/08/02 11:50:32;;;;;;;3.30;0.80;;;25.90;1.00;;;;;;5036703;28;20472;-83
2023/08/02 11:53:06;;;;;;;1.87;0.67;;;26.40;1.00;;;;;;5037701;28;20459;-84
2023/08/02 11:55:35;;;;;;;1.50;0.70;;;26.50;99.90;;;;;;5035919;28;20460;-82
2023/08/02 11:58:04;;;;;;;1.50;0.60;;;26.30;1.00;;;;;;5033720;28;20454;-84
2023/08/02 12:00:33;;;;;;;2.10;0.90;;;26.40;99.90;;;;;;5038252;28;20473;-84
2023/08/02 12:03:14;;;;;;;1.87;0.87;;;26.10;1.00;;;;;;5038792;28;20441;-82
2023/08/02 12:05:42;;;;;;;1.57;0.70;;;25.60;99.90;;;;;;5036187;28;20524;-84
2023/08/02 12:08:12;;;;;;;1.40;0.70;;;25.00;1.00;;;;;;5032003;28;20482;-83
2023/08/02 12:10:39;;;;;;;1.70;0.60;;;24.70;1.00;;;;;;5018279;28;20466;-84
2023/08/02 12:13:14;;;;;;;1.50;0.60;;;24.20;1.00;;;;;;5021980;28;20445;-82
2023/08/02 12:15:44;;;;;;;2.73;0.90;;;23.80;90.60;;;;;;5037846;28;20462;-81
2023/08/02 12:18:12;;;;;;;2.47;0.63;;;23.40;99.90;;;;;;5037454;28;20448;-80
2023/08/02 12:20:38;;;;;;;1.70;0.80;;;23.00;99.90;;;;;;5037630;28;20465;-81
2023/08/02 12:23:06;;;;;;;2.10;0.90;;;22.80;99.90;;;;;;5036476;28;20455;-81
2023/08/02 12:25:47;;;;;;;1.80;0.77;;;22.90;99.90;;;;;;5035093;28;20476;-82
2023/08/02 12:28:14;;;;;;;1.40;0.77;;;23.60;99.90;;;;;;5035378;28;20512;-82
2023/08/02 12:30:40;;;;;;;1.37;0.73;;;24.00;99.90;;;;;;5035738;28;20990;-81
2023/08/02 12:33:07;;;;;;;1.77;1.00;;;24.00;99.90;;;;;;5031870;28;20548;-82
2023/08/02 12:35:36;;;;;;;1.40;0.80;;;23.80;99.90;;;;;;5030814;28;21147;-81
2023/08/02 12:38:03;;;;;;;1.90;0.73;;;23.50;99.90;;;;;;5031456;28;20500;-82
2023/08/02 12:40:30;;;;;;;1.50;0.80;;;23.30;99.90;;;;;;5027432;28;20477;-82
2023/08/02 12:42:56;;;;;;;1.90;0.80;;;23.20;99.90;;;;;;5033011;28;20452;-82
2023/08/02 12:45:26;;;;;;;2.17;0.80;;;22.90;99.90;;;;;;5029305;28;20448;-82
2023/08/02 12:47:53;;;;;;;1.70;0.90;;;22.80;99.90;;;;;;5033746;28;20492;-82
2023/08/02 12:50:20;;;;;;;1.60;0.97;;;22.70;99.90;;;;;;5016228;28;20465;-81
2023/08/02 12:52:48;;;;;;;1.80;0.90;;;22.60;99.90;;;;;;5020172;28;20467;-82
2023/08/02 12:55:16;;;;;;;1.60;0.77;;;22.60;99.90;;;;;;5034879;28;20459;-81